createdAt,value
2018-02-20T00:00:35.475Z,100371.45
2018-02-20T00:03:04.713Z,100360.91
2018-02-20T00:05:34.087Z,100362.98
2018-02-20T00:08:03.335Z,100365.65
2018-02-20T00:10:33.334Z,100367.13
2018-02-20T00:13:03.356Z,100360.44
2018-02-20T00:15:33.362Z,100363.43
2018-02-20T00:18:02.627Z,100359.51
2018-02-20T00:20:32.162Z,100351.95
2018-02-20T00:23:04.390Z,100349.59
2018-02-20T00:25:33.679Z,100353.27
2018-02-20T00:28:03.682Z,100355.63
2018-02-20T00:30:32.931Z,100350.42
2018-02-20T00:33:02.163Z,100341.91
2018-02-20T00:35:32.261Z,100336.56
2018-02-20T00:38:01.497Z,100332.11
2018-02-20T00:40:30.711Z,100325.67
2018-02-20T00:43:00.681Z,100326.06
2018-02-20T00:45:29.974Z,100336.71
2018-02-20T00:47:59.992Z,100333.78
2018-02-20T00:50:29.412Z,100339.23
2018-02-20T00:52:59.419Z,100338.16
2018-02-20T00:55:28.636Z,100339.77
2018-02-20T00:57:57.882Z,100343.72
2018-02-20T01:00:27.172Z,100334.08
2018-02-20T01:02:57.840Z,100338.56
2018-02-20T01:05:28.937Z,100335.22
2018-02-20T01:07:58.163Z,100326.40
2018-02-20T01:10:27.373Z,100324.66
2018-02-20T01:12:56.794Z,100328.27
2018-02-20T01:15:26.785Z,100320.66
2018-02-20T01:17:56.027Z,100323.53
2018-02-20T01:20:25.266Z,100325.00
2018-02-20T01:22:54.495Z,100324.98
2018-02-20T01:25:24.508Z,100334.86
2018-02-20T01:27:53.955Z,100336.45
2018-02-20T01:30:23.206Z,100330.26
2018-02-20T01:32:52.431Z,100333.84
2018-02-20T01:35:21.644Z,100328.97
2018-02-20T01:37:50.892Z,100342.80
2018-02-20T01:40:20.130Z,100338.50
2018-02-20T01:42:50.166Z,100337.90
2018-02-20T01:45:19.465Z,100343.25
2018-02-20T01:47:48.653Z,100340.74
2018-02-20T01:50:17.891Z,100346.33
2018-02-20T01:52:47.197Z,100347.81
2018-02-20T01:55:16.417Z,100354.77
2018-02-20T01:57:46.399Z,100352.30
2018-02-20T02:00:15.646Z,100351.47
2018-02-20T02:02:44.897Z,100351.24
2018-02-20T02:05:14.132Z,100352.33
2018-02-20T02:07:44.145Z,100358.34
2018-02-20T02:10:14.362Z,100354.77
2018-02-20T02:12:44.583Z,100364.19
2018-02-20T02:15:13.870Z,100360.59
2018-02-20T02:17:43.159Z,100359.73
2018-02-20T02:20:12.420Z,100356.78
2018-02-20T02:22:42.425Z,100352.52
2018-02-20T02:25:11.672Z,100347.31
2018-02-20T02:27:40.884Z,100347.56
2018-02-20T02:30:10.231Z,100344.14
2018-02-20T02:32:39.468Z,100340.94
2018-02-20T02:35:08.737Z,100345.32
2018-02-20T02:37:37.966Z,100342.27
2018-02-20T02:40:07.212Z,100342.27
2018-02-20T02:42:36.470Z,100345.14
2018-02-20T02:45:05.682Z,100343.13
2018-02-20T02:47:35.681Z,100339.50
2018-02-20T02:50:04.975Z,100337.36
2018-02-20T02:52:34.203Z,100346.02
2018-02-20T02:55:03.442Z,100349.71
2018-02-20T02:57:32.671Z,100340.71
2018-02-20T03:00:01.918Z,100340.18
2018-02-20T03:02:31.153Z,100335.39
2018-02-20T03:05:00.388Z,100336.38
2018-02-20T03:07:30.403Z,100335.33
2018-02-20T03:09:59.689Z,100338.17
2018-02-20T03:12:29.718Z,100340.89
2018-02-20T03:14:59.751Z,100341.17
2018-02-20T03:17:29.799Z,100342.00
2018-02-20T03:19:59.046Z,100343.27
2018-02-20T03:22:28.280Z,100338.09
2018-02-20T03:24:57.498Z,100340.66
2018-02-20T03:27:26.843Z,100342.00
2018-02-20T03:29:56.183Z,100345.06
2018-02-20T03:32:25.383Z,100355.05
2018-02-20T03:34:54.629Z,100354.75
2018-02-20T03:37:23.886Z,100353.59
2018-02-20T03:39:53.132Z,100349.14
2018-02-20T03:42:22.332Z,100356.98
2018-02-20T03:44:51.590Z,100363.86
2018-02-20T03:47:20.878Z,100355.23
2018-02-20T03:49:50.141Z,100357.23
2018-02-20T03:52:20.134Z,100356.17
2018-02-20T03:54:49.656Z,100351.95
2018-02-20T03:57:19.674Z,100354.00
2018-02-20T03:59:49.707Z,100354.00
2018-02-20T04:02:18.924Z,100356.48
2018-02-20T04:04:48.258Z,100348.67
2018-02-20T04:07:18.404Z,100355.36
2018-02-20T04:09:48.391Z,100357.38
2018-02-20T04:12:17.754Z,100354.59
2018-02-20T04:14:47.232Z,100363.52
2018-02-20T04:17:17.235Z,100366.47
2018-02-20T04:19:47.238Z,100369.70
2018-02-20T04:22:16.544Z,100375.73
2018-02-20T04:24:45.943Z,100373.32
2018-02-20T04:27:16.023Z,100377.50
2018-02-20T04:29:45.288Z,100375.89
2018-02-20T04:32:14.535Z,100375.23
2018-02-20T04:34:43.774Z,100375.23
2018-02-20T04:37:13.904Z,100370.31
2018-02-20T04:39:44.056Z,100372.98
2018-02-20T04:42:13.304Z,100370.96
2018-02-20T04:44:43.275Z,100366.16
2018-02-20T04:47:12.573Z,100372.58
2018-02-20T04:49:41.971Z,100371.73
2018-02-20T04:52:11.244Z,100383.33
2018-02-20T04:54:40.492Z,100382.36
2018-02-20T04:57:09.736Z,100378.77
2018-02-20T04:59:38.940Z,100386.52
2018-02-20T05:02:08.171Z,100380.50
2018-02-20T05:04:37.468Z,100379.38
2018-02-20T05:07:06.699Z,100379.70
2018-02-20T05:09:35.937Z,100379.85
2018-02-20T05:12:05.216Z,100382.78
2018-02-20T05:14:34.455Z,100375.78
2018-02-20T05:17:03.755Z,100384.45
2018-02-20T05:19:33.020Z,100380.47
2018-02-20T05:22:03.016Z,100379.13
2018-02-20T05:24:33.130Z,100379.25
2018-02-20T05:27:02.352Z,100376.84
2018-02-20T05:29:31.578Z,100376.55
2018-02-20T05:32:00.795Z,100375.38
2018-02-20T05:34:30.086Z,100376.06
2018-02-20T05:37:00.034Z,100384.70
2018-02-20T05:39:29.315Z,100378.58
2018-02-20T05:41:58.563Z,100379.33
2018-02-20T05:44:27.955Z,100385.09
2018-02-20T05:46:57.958Z,100385.48
2018-02-20T05:49:28.229Z,100379.66
2018-02-20T05:51:57.408Z,100379.64
2018-02-20T05:54:26.667Z,100379.92
2018-02-20T05:56:55.884Z,100375.12
2018-02-20T05:59:25.906Z,100374.47
2018-02-20T06:01:55.142Z,100376.06
2018-02-20T06:04:24.382Z,100376.01
2018-02-20T06:06:54.502Z,100379.30
2018-02-20T06:09:23.720Z,100378.38
2018-02-20T06:11:53.754Z,100387.63
2018-02-20T06:14:23.135Z,100393.85
2018-02-20T06:16:53.126Z,100392.96
2018-02-20T06:19:22.548Z,100399.69
2018-02-20T06:21:52.581Z,100407.07
2018-02-20T06:24:22.058Z,100418.06
2018-02-20T06:26:52.139Z,100418.62
2018-02-20T06:29:21.391Z,100427.67
2018-02-20T06:31:51.589Z,100424.20
2018-02-20T06:34:20.819Z,100420.95
2018-02-20T06:36:50.085Z,100421.48
2018-02-20T06:39:19.423Z,100421.27
2018-02-20T06:41:48.662Z,100414.61
2018-02-20T06:44:17.897Z,100418.12
2018-02-20T06:46:47.899Z,100421.80
2018-02-20T06:49:17.098Z,100419.45
2018-02-20T06:51:47.131Z,100423.52
2018-02-20T06:54:16.607Z,100428.89
2018-02-20T06:56:45.869Z,100431.80
2018-02-20T06:59:15.841Z,100437.81
2018-02-20T07:01:45.858Z,100431.03
2018-02-20T07:04:15.870Z,100431.72
2018-02-20T07:06:45.885Z,100433.57
2018-02-20T07:09:15.105Z,100427.40
2018-02-20T07:11:44.343Z,100430.34
2018-02-20T07:14:13.587Z,100432.80
2018-02-20T07:16:43.568Z,100433.80
2018-02-20T07:19:12.812Z,100438.59
2018-02-20T07:21:42.038Z,100441.66
2018-02-20T07:24:11.308Z,100430.33
2018-02-20T07:26:41.485Z,100424.23
2018-02-20T07:29:10.720Z,100432.55
2018-02-20T07:31:40.726Z,100430.88
2018-02-20T07:34:09.998Z,100422.62
2018-02-20T07:36:39.227Z,100423.53
2018-02-20T07:39:09.708Z,100415.97
2018-02-20T07:41:38.945Z,100421.80
2018-02-20T07:44:08.168Z,100427.05
2018-02-20T07:46:37.404Z,100423.13
2018-02-20T07:49:06.649Z,100428.34
2018-02-20T07:51:36.668Z,100431.47
2018-02-20T07:54:06.649Z,100424.06
2018-02-20T07:56:35.887Z,100423.37
2018-02-20T07:59:05.119Z,100422.04
2018-02-20T08:01:34.359Z,100420.52
2018-02-20T08:04:03.625Z,100419.42
2018-02-20T08:06:32.877Z,100424.66
2018-02-20T08:09:02.881Z,100428.56
2018-02-20T08:11:33.026Z,100421.38
2018-02-20T08:14:02.307Z,100423.05
2018-02-20T08:16:32.530Z,100428.21
2018-02-20T08:19:02.634Z,100440.66
2018-02-20T08:21:31.865Z,100441.22
2018-02-20T08:24:01.102Z,100444.77
2018-02-20T08:26:30.355Z,100444.80
2018-02-20T08:28:59.607Z,100449.01
2018-02-20T08:31:28.875Z,100452.77
2018-02-20T08:33:58.097Z,100456.50
2018-02-20T08:36:27.338Z,100448.22
2018-02-20T08:38:56.746Z,100452.85
2018-02-20T08:41:25.951Z,100454.80
2018-02-20T08:43:55.213Z,100450.46
2018-02-20T08:46:24.415Z,100449.20
2018-02-20T08:48:54.400Z,100444.90
2018-02-20T08:51:23.608Z,100447.89
2018-02-20T08:53:52.844Z,100441.75
2018-02-20T08:56:22.857Z,100439.60
2018-02-20T08:58:52.857Z,100440.93
2018-02-20T09:01:22.056Z,100440.05
2018-02-20T09:03:51.351Z,100444.60
2018-02-20T09:06:20.755Z,100439.01
2018-02-20T09:08:49.954Z,100439.46
2018-02-20T09:11:19.205Z,100433.53
2018-02-20T09:13:48.435Z,100442.01
2018-02-20T09:16:17.650Z,100431.11
2018-02-20T09:18:46.845Z,100438.26
2018-02-20T09:21:16.066Z,100442.55
2018-02-20T09:23:45.288Z,100442.41
2018-02-20T09:26:14.670Z,100448.17
2018-02-20T09:28:43.874Z,100448.05
2018-02-20T09:31:13.088Z,100442.55
2018-02-20T09:33:42.283Z,100445.94
2018-02-20T09:36:11.503Z,100445.44
2018-02-20T09:38:40.693Z,100442.67
2018-02-20T09:41:10.000Z,100445.79
2018-02-20T09:43:39.198Z,100446.02
2018-02-20T09:46:08.445Z,100452.19
2018-02-20T09:48:38.424Z,100451.81
2018-02-20T09:51:07.655Z,100451.31
2018-02-20T09:53:37.629Z,100454.80
2018-02-20T09:56:07.150Z,100452.99
2018-02-20T09:58:36.386Z,100447.63
2018-02-20T10:01:06.570Z,100447.66
2018-02-20T10:03:35.801Z,100449.67
2018-02-20T10:06:05.023Z,100454.37
2018-02-20T10:08:34.270Z,100443.41
2018-02-20T10:11:03.499Z,100449.56
2018-02-20T10:13:32.723Z,100455.36
2018-02-20T10:16:01.948Z,100443.69
2018-02-20T10:18:31.181Z,100443.45
2018-02-20T10:21:01.180Z,100449.64
2018-02-20T10:23:31.210Z,100442.69
2018-02-20T10:26:00.620Z,100442.69
2018-02-20T10:28:30.631Z,100447.42
2018-02-20T10:31:00.604Z,100448.22
2018-02-20T10:33:29.831Z,100443.00
2018-02-20T10:35:59.047Z,100449.44
2018-02-20T10:38:28.311Z,100447.17
2018-02-20T10:40:59.038Z,100451.08
2018-02-20T10:43:28.279Z,100448.13
2018-02-20T10:45:58.310Z,100448.79
2018-02-20T10:48:27.549Z,100449.89
2018-02-20T10:50:56.818Z,100449.64
2018-02-20T10:53:26.033Z,100447.34
2018-02-20T10:55:55.252Z,100445.02
2018-02-20T10:58:24.457Z,100448.98
2018-02-20T11:00:54.491Z,100450.86
2018-02-20T11:03:24.551Z,100454.92
2018-02-20T11:05:53.776Z,100453.07
2018-02-20T11:08:23.155Z,100455.22
2018-02-20T11:10:52.441Z,100449.84
2018-02-20T11:13:22.299Z,100445.67
2018-02-20T11:15:51.475Z,100449.72
2018-02-20T11:18:20.750Z,100444.77
2018-02-20T11:20:49.982Z,100445.16
2018-02-20T11:23:19.194Z,100445.44
2018-02-20T11:25:49.214Z,100439.91
2018-02-20T11:28:19.191Z,100444.48
2018-02-20T11:30:48.523Z,100445.83
2018-02-20T11:33:17.732Z,100444.20
2018-02-20T11:35:47.739Z,100454.17
2018-02-20T11:38:16.967Z,100450.41
2018-02-20T11:40:46.185Z,100445.43
2018-02-20T11:43:15.406Z,100446.75
2018-02-20T11:45:44.672Z,100457.37
2018-02-20T11:48:13.894Z,100456.94
2018-02-20T11:50:43.103Z,100463.92
2018-02-20T11:53:12.374Z,100459.72
2018-02-20T11:55:42.311Z,100463.87
2018-02-20T11:58:11.551Z,100458.52
2018-02-20T12:00:41.527Z,100460.50
2018-02-20T12:03:10.947Z,100463.30
2018-02-20T12:05:40.239Z,100454.44
2018-02-20T12:08:09.519Z,100455.88
2018-02-20T12:10:39.443Z,100452.71
2018-02-20T12:13:08.829Z,100452.55
2018-02-20T12:15:38.106Z,100453.50
2018-02-20T12:18:07.344Z,100451.47
2018-02-20T12:20:36.709Z,100448.49
2018-02-20T12:23:05.964Z,100451.71
2018-02-20T12:25:36.854Z,100451.38
2018-02-20T12:28:06.826Z,100449.11
2018-02-20T12:30:36.819Z,100447.80
2018-02-20T12:33:06.059Z,100454.92
2018-02-20T12:35:36.158Z,100449.56
2018-02-20T12:38:05.392Z,100447.05
2018-02-20T12:40:34.622Z,100449.22
2018-02-20T12:43:03.844Z,100444.91
2018-02-20T12:45:33.093Z,100442.14
2018-02-20T12:48:02.360Z,100439.03
2018-02-20T12:50:31.543Z,100444.30
2018-02-20T12:53:00.764Z,100448.23
2018-02-20T12:55:30.764Z,100441.95
2018-02-20T12:58:00.772Z,100441.83
2018-02-20T13:00:30.800Z,100442.11
2018-02-20T13:03:00.804Z,100451.93
2018-02-20T13:05:30.891Z,100444.91
2018-02-20T13:08:00.283Z,100441.83
2018-02-20T13:10:29.559Z,100449.48
2018-02-20T13:12:58.854Z,100448.56
2018-02-20T13:15:28.086Z,100442.61
2018-02-20T13:17:57.421Z,100440.33
2018-02-20T13:20:27.521Z,100447.81
2018-02-20T13:22:56.809Z,100441.74
2018-02-20T13:25:26.039Z,100441.72
2018-02-20T13:27:56.033Z,100436.08
2018-02-20T13:30:25.263Z,100434.05
2018-02-20T13:32:55.272Z,100432.72
2018-02-20T13:35:24.525Z,100430.58
2018-02-20T13:37:53.744Z,100423.16
2018-02-20T13:40:22.960Z,100436.22
2018-02-20T13:42:52.197Z,100432.75
2018-02-20T13:45:21.427Z,100433.42
2018-02-20T13:47:50.801Z,100433.71
2018-02-20T13:50:20.019Z,100434.13
2018-02-20T13:52:49.253Z,100429.44
2018-02-20T13:55:20.818Z,100438.31
2018-02-20T13:57:50.092Z,100433.89
2018-02-20T14:00:19.304Z,100431.72
2018-02-20T14:02:48.536Z,100432.28
2018-02-20T14:05:17.759Z,100429.59
2018-02-20T14:07:46.977Z,100433.66
2018-02-20T14:10:16.222Z,100427.30
2018-02-20T14:12:45.431Z,100428.23
2018-02-20T14:15:14.737Z,100425.97
2018-02-20T14:17:43.973Z,100429.76
2018-02-20T14:20:13.277Z,100434.31
2018-02-20T14:22:42.492Z,100427.56
2018-02-20T14:25:12.534Z,100427.52
2018-02-20T14:27:42.527Z,100428.95
2018-02-20T14:30:11.735Z,100426.91
2018-02-20T14:32:40.961Z,100420.51
2018-02-20T14:35:10.195Z,100423.01
2018-02-20T14:37:39.443Z,100419.38
2018-02-20T14:40:08.691Z,100414.41
2018-02-20T14:42:37.898Z,100425.45
2018-02-20T14:45:07.935Z,100423.81
2018-02-20T14:47:37.922Z,100420.60
2018-02-20T14:50:07.197Z,100415.12
2018-02-20T14:52:36.409Z,100416.08
2018-02-20T14:55:05.654Z,100414.39
2018-02-20T14:57:35.808Z,100424.73
2018-02-20T15:00:05.048Z,100421.89
2018-02-20T15:02:35.040Z,100423.50
2018-02-20T15:05:04.459Z,100427.22
2018-02-20T15:07:33.813Z,100430.49
2018-02-20T15:10:03.047Z,100429.97
2018-02-20T15:12:32.342Z,100436.24
2018-02-20T15:15:01.696Z,100438.96
2018-02-20T15:17:31.707Z,100434.75
2018-02-20T15:20:01.814Z,100444.30
2018-02-20T15:22:31.069Z,100435.39
2018-02-20T15:25:00.293Z,100433.61
2018-02-20T15:27:29.523Z,100432.27
2018-02-20T15:29:58.903Z,100433.50
2018-02-20T15:32:28.925Z,100447.94
2018-02-20T15:34:58.939Z,100440.42
2018-02-20T15:37:29.135Z,100444.23
2018-02-20T15:39:58.411Z,100440.47
2018-02-20T15:42:28.375Z,100451.39
2018-02-20T15:44:57.698Z,100450.30
2018-02-20T15:47:28.919Z,100449.64
2018-02-20T15:49:59.246Z,100453.11
2018-02-20T15:52:28.445Z,100462.03
2018-02-20T15:54:58.446Z,100456.93
2018-02-20T15:57:28.427Z,100466.89
2018-02-20T15:59:57.678Z,100472.02
2018-02-20T16:02:27.674Z,100462.77
2018-02-20T16:04:57.671Z,100471.52
2018-02-20T16:07:26.944Z,100473.92
2018-02-20T16:09:56.193Z,100475.55
2018-02-20T16:12:25.408Z,100479.73
2018-02-20T16:14:55.396Z,100487.67
2018-02-20T16:17:26.195Z,100487.58
2018-02-20T16:19:55.623Z,100490.56
2018-02-20T16:22:24.859Z,100490.05
2018-02-20T16:24:55.034Z,100498.15
2018-02-20T16:27:24.377Z,100502.05
2018-02-20T16:29:54.448Z,100501.11
2018-02-20T16:32:23.640Z,100500.45
2018-02-20T16:34:52.864Z,100503.70
2018-02-20T16:37:22.077Z,100496.86
2018-02-20T16:39:52.070Z,100500.63
2018-02-20T16:42:21.451Z,100505.06
2018-02-20T16:44:50.681Z,100510.98
2018-02-20T16:47:19.894Z,100507.12
2018-02-20T16:49:49.916Z,100511.80
2018-02-20T16:52:19.156Z,100509.68
2018-02-20T16:54:48.621Z,100513.16
2018-02-20T16:57:17.847Z,100519.47
2018-02-20T16:59:47.267Z,100517.47
2018-02-20T17:02:16.556Z,100522.71
2018-02-20T17:04:45.777Z,100522.18
2018-02-20T17:07:15.036Z,100527.81
2018-02-20T17:09:44.245Z,100530.62
2018-02-20T17:12:13.492Z,100530.20
2018-02-20T17:14:42.691Z,100540.55
2018-02-20T17:17:12.013Z,100546.18
2018-02-20T17:19:41.225Z,100542.30
2018-02-20T17:22:10.457Z,100539.72
2018-02-20T17:24:39.688Z,100546.69
2018-02-20T17:27:08.948Z,100550.69
2018-02-20T17:29:38.187Z,100556.60
2018-02-20T17:32:08.177Z,100562.52
2018-02-20T17:34:37.394Z,100567.99
2018-02-20T17:37:06.596Z,100567.70
2018-02-20T17:39:35.819Z,100569.98
2018-02-20T17:42:05.070Z,100581.49
2018-02-20T17:44:35.098Z,100583.21
2018-02-20T17:47:04.365Z,100584.15
2018-02-20T17:49:33.584Z,100584.38
2018-02-20T17:52:03.047Z,100590.02
2018-02-20T17:54:32.262Z,100587.44
2018-02-20T17:57:01.472Z,100597.36
2018-02-20T17:59:30.736Z,100597.63
2018-02-20T18:01:59.963Z,100598.94
2018-02-20T18:04:29.357Z,100602.70
2018-02-20T18:06:59.323Z,100603.09
2018-02-20T18:09:29.328Z,100604.13
2018-02-20T18:11:59.392Z,100613.92
2018-02-20T18:14:28.630Z,100613.75
2018-02-20T18:16:57.903Z,100607.17
2018-02-20T18:19:27.139Z,100611.95
2018-02-20T18:21:57.131Z,100627.47
2018-02-20T18:24:26.445Z,100625.17
2018-02-20T18:26:55.660Z,100624.23
2018-02-20T18:29:24.891Z,100631.70
2018-02-20T18:31:54.171Z,100625.92
2018-02-20T18:34:23.413Z,100629.77
2018-02-20T18:36:52.645Z,100632.30
2018-02-20T18:39:21.910Z,100633.61
2018-02-20T18:41:51.137Z,100630.80
2018-02-20T18:44:20.349Z,100629.84
2018-02-20T18:46:50.335Z,100632.26
2018-02-20T18:49:19.556Z,100641.09
2018-02-20T18:51:49.773Z,100644.27
2018-02-20T18:54:19.799Z,100645.02
2018-02-20T18:56:49.812Z,100657.73
2018-02-20T18:59:19.799Z,100659.61
2018-02-20T19:01:49.054Z,100659.30
2018-02-20T19:04:18.265Z,100657.40
2018-02-20T19:06:47.555Z,100654.80
2018-02-20T19:09:16.773Z,100657.96
2018-02-20T19:11:46.004Z,100657.81
2018-02-20T19:14:15.504Z,100663.83
2018-02-20T19:16:44.742Z,100662.97
2018-02-20T19:19:13.971Z,100663.05
2018-02-20T19:21:43.210Z,100665.37
2018-02-20T19:24:12.481Z,100664.44
2018-02-20T19:26:41.820Z,100670.53
2018-02-20T19:29:11.822Z,100672.11
2018-02-20T19:31:41.832Z,100676.94
2018-02-20T19:34:11.108Z,100674.87
2018-02-20T19:36:40.331Z,100677.11
2018-02-20T19:39:10.388Z,100679.86
2018-02-20T19:41:39.959Z,100687.09
2018-02-20T19:44:09.998Z,100687.22
2018-02-20T19:46:39.535Z,100691.53
2018-02-20T19:49:08.915Z,100675.91
2018-02-20T19:51:38.112Z,100677.73
2018-02-20T19:54:07.358Z,100680.44
2018-02-20T19:56:36.582Z,100680.34
2018-02-20T19:59:06.775Z,100690.13
2018-02-20T20:01:37.530Z,100691.33
2018-02-20T20:04:07.663Z,100699.23
2018-02-20T20:06:37.694Z,100697.44
2018-02-20T20:09:07.075Z,100702.27
2018-02-20T20:11:36.278Z,100704.54
2018-02-20T20:14:05.612Z,100704.80
2018-02-20T20:16:34.864Z,100707.86
2018-02-20T20:19:04.890Z,100716.77
2018-02-20T20:21:34.901Z,100718.11
2018-02-20T20:24:04.159Z,100719.27
2018-02-20T20:26:34.171Z,100720.19
2018-02-20T20:29:03.440Z,100719.05
2018-02-20T20:31:33.513Z,100717.77
2018-02-20T20:34:02.772Z,100712.41
2018-02-20T20:36:32.001Z,100718.40
2018-02-20T20:39:02.083Z,100714.31
2018-02-20T20:41:31.413Z,100713.08
2018-02-20T20:44:00.656Z,100718.24
2018-02-20T20:46:29.992Z,100719.56
2018-02-20T20:48:59.225Z,100725.81
2018-02-20T20:51:28.480Z,100722.78
2018-02-20T20:53:57.847Z,100722.51
2018-02-20T20:56:27.833Z,100737.95
2018-02-20T20:58:57.087Z,100735.55
2018-02-20T21:01:26.320Z,100739.00
2018-02-20T21:03:55.574Z,100744.92
2018-02-20T21:06:24.847Z,100749.63
2018-02-20T21:08:54.218Z,100749.95
2018-02-20T21:11:23.506Z,100746.59
2018-02-20T21:13:53.733Z,100748.14
2018-02-20T21:16:22.973Z,100747.20
2018-02-20T21:18:53.706Z,100752.21
2018-02-20T21:21:23.738Z,100751.99
2018-02-20T21:23:53.025Z,100752.58
2018-02-20T21:26:23.011Z,100758.45
2018-02-20T21:28:52.359Z,100762.75
2018-02-20T21:31:21.594Z,100760.45
2018-02-20T21:33:50.829Z,100762.72
2018-02-20T21:36:20.055Z,100759.92
2018-02-20T21:38:49.282Z,100766.45
2018-02-20T21:41:18.509Z,100772.45
2018-02-20T21:43:47.781Z,100776.94
2018-02-20T21:46:17.795Z,100788.17
2018-02-20T21:48:47.131Z,100791.00
2018-02-20T21:51:16.345Z,100796.19
2018-02-20T21:53:46.608Z,100795.57
2018-02-20T21:56:15.861Z,100802.53
2018-02-20T21:58:45.845Z,100797.03
2018-02-20T22:01:15.133Z,100795.29
2018-02-20T22:03:44.374Z,100803.41
2018-02-20T22:06:14.153Z,100806.01
2018-02-20T22:08:44.110Z,100794.81
2018-02-20T22:11:14.192Z,100800.22
2018-02-20T22:13:43.447Z,100799.34
2018-02-20T22:16:12.674Z,100795.71
2018-02-20T22:18:42.719Z,100799.87
2018-02-20T22:21:11.939Z,100799.47
2018-02-20T22:23:41.232Z,100799.31
2018-02-20T22:26:11.390Z,100797.20
2018-02-20T22:28:41.360Z,100795.88
2018-02-20T22:31:11.351Z,100800.97
2018-02-20T22:33:40.615Z,100807.13
2018-02-20T22:36:09.836Z,100809.20
2018-02-20T22:38:39.194Z,100818.61
2018-02-20T22:41:09.190Z,100817.48
2018-02-20T22:43:38.428Z,100821.52
2018-02-20T22:46:07.713Z,100830.92
2018-02-20T22:48:36.974Z,100835.03
2018-02-20T22:51:06.192Z,100838.66
2018-02-20T22:53:35.472Z,100840.47
2018-02-20T22:56:04.739Z,100843.19
2018-02-20T22:58:33.940Z,100849.34
2018-02-20T23:01:03.181Z,100852.30
2018-02-20T23:03:32.517Z,100857.64
2018-02-20T23:06:01.770Z,100864.83
2018-02-20T23:08:31.787Z,100865.80
2018-02-20T23:11:01.067Z,100867.61
2018-02-20T23:13:30.322Z,100877.34
2018-02-20T23:15:59.543Z,100883.80
2018-02-20T23:18:29.565Z,100883.38
2018-02-20T23:20:58.865Z,100880.14
2018-02-20T23:23:28.105Z,100886.16
2018-02-20T23:25:57.315Z,100883.83
2018-02-20T23:28:26.565Z,100885.01
2018-02-20T23:30:55.829Z,100883.55
2018-02-20T23:33:25.071Z,100888.47
2018-02-20T23:35:55.275Z,100887.89
2018-02-20T23:38:24.509Z,100899.62
2018-02-20T23:40:53.705Z,100901.55
2018-02-20T23:43:23.718Z,100895.77
2018-02-20T23:45:52.924Z,100905.56
2018-02-20T23:48:22.920Z,100899.69
2018-02-20T23:50:52.416Z,100901.27
2018-02-20T23:53:22.437Z,100900.67
2018-02-20T23:55:51.615Z,100902.95
2018-02-20T23:58:20.839Z,100909.08
